createdAt,value
2023-07-03T00:01:17.390Z,99350.06
2023-07-03T00:03:43.829Z,99346.50
2023-07-03T00:06:10.414Z,99343.16
2023-07-03T00:08:37.039Z,99339.50
2023-07-03T00:11:05.443Z,99350.97
2023-07-03T00:13:32.101Z,99340.47
2023-07-03T00:16:00.692Z,99341.41
2023-07-03T00:18:27.902Z,99348.91
2023-07-03T00:20:55.635Z,99342.56
2023-07-03T00:23:23.176Z,99336.81
2023-07-03T00:25:50.866Z,99328.44
2023-07-03T00:28:17.895Z,99336.16
2023-07-03T00:30:46.030Z,99332.81
2023-07-03T00:33:13.119Z,99331.00
2023-07-03T00:35:40.384Z,99338.44
2023-07-03T00:38:06.887Z,99329.78
2023-07-03T00:40:33.746Z,99321.56
2023-07-03T00:43:00.459Z,99320.66
2023-07-03T00:45:26.977Z,99325.19
2023-07-03T00:47:54.509Z,99323.94
2023-07-03T00:50:21.495Z,99327.78
2023-07-03T00:52:53.963Z,99335.13
2023-07-03T00:55:21.464Z,99335.69
2023-07-03T00:57:47.852Z,99333.06
2023-07-03T01:00:14.821Z,99329.03
2023-07-03T01:02:59.941Z,99329.31
2023-07-03T01:05:33.310Z,99324.94
2023-07-03T01:08:01.872Z,99330.13
2023-07-03T01:10:30.656Z,99326.56
2023-07-03T01:13:01.894Z,99325.91
2023-07-03T01:15:35.252Z,99322.09
2023-07-03T01:18:04.798Z,99315.47
2023-07-03T01:20:35.821Z,99318.28
2023-07-03T01:23:20.067Z,99313.28
2023-07-03T01:25:48.426Z,99305.78
2023-07-03T01:28:18.231Z,99305.78
2023-07-03T01:30:45.729Z,99302.47
2023-07-03T01:33:18.924Z,99288.44
2023-07-03T01:35:50.126Z,99289.66
2023-07-03T01:38:18.933Z,99284.28
2023-07-03T01:40:45.402Z,99282.47
2023-07-03T01:43:13.270Z,99281.44
2023-07-03T01:45:45.156Z,99281.22
2023-07-03T01:48:11.736Z,99289.13
2023-07-03T01:50:39.756Z,99281.22
2023-07-03T01:53:14.071Z,99273.63
2023-07-03T01:56:05.230Z,99283.81
2023-07-03T01:58:49.532Z,99277.25
2023-07-03T02:01:26.132Z,99280.84
2023-07-03T02:04:05.605Z,99268.31
2023-07-03T02:06:39.074Z,99273.22
2023-07-03T02:09:06.357Z,99266.88
2023-07-03T02:11:32.876Z,99271.44
2023-07-03T02:13:59.741Z,99267.09
2023-07-03T02:16:26.279Z,99258.00
2023-07-03T02:18:52.738Z,99256.69
2023-07-03T02:21:19.273Z,99263.84
2023-07-03T02:23:46.056Z,99262.50
2023-07-03T02:26:12.984Z,99271.72
2023-07-03T02:28:39.681Z,99261.00
2023-07-03T02:31:06.333Z,99266.34
2023-07-03T02:33:33.219Z,99260.72
2023-07-03T02:36:03.409Z,99267.38
2023-07-03T02:38:29.846Z,99269.03
2023-07-03T02:40:56.485Z,99263.50
2023-07-03T02:43:22.921Z,99264.44
2023-07-03T02:45:50.140Z,99262.19
2023-07-03T02:48:16.883Z,99271.28
2023-07-03T02:50:43.466Z,99263.97
2023-07-03T02:53:10.102Z,99249.88
2023-07-03T02:55:36.490Z,99256.22
2023-07-03T02:58:02.879Z,99253.03
2023-07-03T03:00:29.436Z,99253.09
2023-07-03T03:02:56.009Z,99246.84
2023-07-03T03:05:22.656Z,99250.13
2023-07-03T03:07:49.190Z,99251.97
2023-07-03T03:10:15.778Z,99249.81
2023-07-03T03:12:42.289Z,99256.81
2023-07-03T03:15:09.006Z,99249.13
2023-07-03T03:17:35.428Z,99251.88
2023-07-03T03:20:01.872Z,99254.94
2023-07-03T03:22:28.429Z,99250.53
2023-07-03T03:24:54.968Z,99246.22
2023-07-03T03:27:21.373Z,99244.59
2023-07-03T03:29:49.259Z,99244.59
2023-07-03T03:32:15.688Z,99244.97
2023-07-03T03:34:42.120Z,99241.59
2023-07-03T03:37:08.532Z,99247.41
2023-07-03T03:39:35.154Z,99246.97
2023-07-03T03:42:01.936Z,99248.72
2023-07-03T03:44:28.344Z,99250.53
2023-07-03T03:46:54.757Z,99249.97
2023-07-03T03:49:21.307Z,99246.66
2023-07-03T03:51:47.805Z,99255.34
2023-07-03T03:54:14.204Z,99254.88
2023-07-03T03:56:40.626Z,99247.84
2023-07-03T03:59:07.610Z,99253.22
2023-07-03T04:01:35.527Z,99254.13
2023-07-03T04:04:02.506Z,99247.50
2023-07-03T04:06:29.227Z,99246.88
2023-07-03T04:08:59.748Z,99248.75
2023-07-03T04:11:27.374Z,99238.34
2023-07-03T04:13:53.844Z,99247.28
2023-07-03T04:16:21.032Z,99240.94
2023-07-03T04:18:47.538Z,99242.94
2023-07-03T04:21:14.436Z,99246.06
2023-07-03T04:23:42.030Z,99248.16
2023-07-03T04:26:08.575Z,99241.16
2023-07-03T04:28:35.283Z,99246.75
2023-07-03T04:31:03.533Z,99249.06
2023-07-03T04:33:30.098Z,99244.28
2023-07-03T04:35:56.740Z,99262.59
2023-07-03T04:38:25.181Z,99261.41
2023-07-03T04:40:53.270Z,99263.41
2023-07-03T04:43:20.086Z,99257.84
2023-07-03T04:45:48.443Z,99265.00
2023-07-03T04:48:17.546Z,99264.03
2023-07-03T04:50:47.325Z,99264.28
2023-07-03T04:53:13.768Z,99264.44
2023-07-03T04:55:40.254Z,99262.06
2023-07-03T04:58:06.788Z,99271.16
2023-07-03T05:00:33.237Z,99276.06
2023-07-03T05:03:01.354Z,99271.28
2023-07-03T05:05:28.004Z,99277.56
2023-07-03T05:07:56.460Z,99288.16
2023-07-03T05:10:25.544Z,99288.88
2023-07-03T05:12:52.259Z,99283.03
2023-07-03T05:15:20.412Z,99276.97
2023-07-03T05:17:56.063Z,99279.94
2023-07-03T05:20:23.539Z,99280.53
2023-07-03T05:22:50.430Z,99281.78
2023-07-03T05:25:17.698Z,99283.03
2023-07-03T05:27:44.368Z,99286.44
2023-07-03T05:30:11.602Z,99290.69
2023-07-03T05:32:38.775Z,99282.19
2023-07-03T05:35:06.442Z,99283.03
2023-07-03T05:37:33.800Z,99282.53
2023-07-03T05:40:00.347Z,99279.84
2023-07-03T05:42:26.830Z,99284.75
2023-07-03T05:44:53.232Z,99325.69
2023-07-03T05:47:19.722Z,99294.22
2023-07-03T05:49:46.263Z,99288.03
2023-07-03T05:52:12.796Z,99298.59
2023-07-03T05:54:39.508Z,99291.34
2023-07-03T05:57:08.197Z,99310.03
2023-07-03T05:59:36.814Z,99307.25
2023-07-03T06:02:05.657Z,99324.56
2023-07-03T06:04:34.287Z,99307.38
2023-07-03T06:07:01.949Z,99334.63
2023-07-03T06:09:29.153Z,99316.38
2023-07-03T06:11:57.020Z,99315.25
2023-07-03T06:14:24.369Z,99318.84
2023-07-03T06:16:51.903Z,99313.00
2023-07-03T06:19:19.835Z,99315.66
2023-07-03T06:21:46.337Z,99330.03
2023-07-03T06:24:15.028Z,99330.28
2023-07-03T06:26:44.130Z,99323.84
2023-07-03T06:29:12.736Z,99332.66
2023-07-03T06:31:41.394Z,99357.78
2023-07-03T06:34:08.240Z,99331.91
2023-07-03T06:36:36.026Z,99341.25
2023-07-03T06:39:05.917Z,99328.88
2023-07-03T06:41:35.667Z,99361.19
2023-07-03T06:44:05.137Z,99334.75
2023-07-03T06:46:32.049Z,99330.06
2023-07-03T06:48:58.747Z,99339.66
2023-07-03T06:51:26.293Z,99344.44
2023-07-03T06:53:53.200Z,99340.25
2023-07-03T06:56:20.809Z,99349.03
2023-07-03T06:58:50.685Z,99334.41
2023-07-03T07:01:19.990Z,99331.13
2023-07-03T07:03:46.682Z,99374.06
2023-07-03T07:06:15.181Z,99334.16
2023-07-03T07:08:42.007Z,99348.56
2023-07-03T07:11:10.925Z,99334.97
2023-07-03T07:13:50.163Z,99317.06
2023-07-03T07:16:29.201Z,99343.63
2023-07-03T07:18:57.849Z,99343.91
2023-07-03T07:21:24.960Z,99338.25
2023-07-03T07:23:53.674Z,99337.78
2023-07-03T07:26:21.058Z,99332.66
2023-07-03T07:28:47.560Z,99338.50
2023-07-03T07:31:26.143Z,99339.88
2023-07-03T07:33:53.200Z,99328.66
2023-07-03T07:36:22.071Z,99344.13
2023-07-03T07:38:55.210Z,99345.75
2023-07-03T07:41:22.978Z,99344.59
2023-07-03T07:43:50.420Z,99344.59
2023-07-03T07:46:17.262Z,99367.66
2023-07-03T07:48:43.879Z,99361.56
2023-07-03T07:51:11.877Z,99372.66
2023-07-03T07:53:38.457Z,99354.88
2023-07-03T07:56:08.105Z,99352.66
2023-07-03T07:58:35.734Z,99351.84
2023-07-03T08:01:02.993Z,99342.72
2023-07-03T08:03:29.675Z,99345.41
2023-07-03T08:05:58.376Z,99359.47
2023-07-03T08:08:27.126Z,99338.03
2023-07-03T08:10:55.043Z,99341.44
2023-07-03T08:13:22.256Z,99347.63
2023-07-03T08:15:49.309Z,99344.72
2023-07-03T08:18:16.966Z,99339.78
2023-07-03T08:20:44.515Z,99360.13
2023-07-03T08:23:11.388Z,99355.84
2023-07-03T08:25:38.326Z,99347.50
2023-07-03T08:28:05.553Z,99355.22
2023-07-03T08:30:32.359Z,99372.09
2023-07-03T08:32:58.819Z,99357.19
2023-07-03T08:37:55.274Z,99357.84
2023-07-03T08:40:23.575Z,99351.69
2023-07-03T08:42:54.446Z,99345.97
2023-07-03T08:45:24.353Z,99387.97
2023-07-03T08:47:55.015Z,99339.91
2023-07-03T08:50:35.800Z,99353.41
2023-07-03T08:53:05.543Z,99361.50
2023-07-03T08:55:42.022Z,99373.34
2023-07-03T08:58:09.548Z,99352.63
2023-07-03T09:00:46.039Z,99350.13
2023-07-03T09:03:23.489Z,99346.50
2023-07-03T09:06:03.220Z,99350.81
2023-07-03T09:08:52.466Z,99350.81
2023-07-03T09:11:22.182Z,99368.91
2023-07-03T09:13:53.550Z,99404.03
2023-07-03T09:16:23.539Z,99352.09
2023-07-03T09:18:58.979Z,99351.00
2023-07-03T09:21:28.306Z,99342.63
2023-07-03T09:24:23.225Z,99372.34
2023-07-03T09:27:01.004Z,99354.56
2023-07-03T09:29:28.525Z,99354.88
2023-07-03T09:31:56.435Z,99357.69
2023-07-03T09:34:23.036Z,99358.41
2023-07-03T09:37:00.456Z,99351.25
2023-07-03T09:39:27.070Z,99354.72
2023-07-03T09:41:58.047Z,99374.03
2023-07-03T09:44:25.299Z,99375.47
2023-07-03T09:46:56.858Z,99368.47
2023-07-03T09:49:29.400Z,99352.13
2023-07-03T09:51:58.875Z,99366.72
2023-07-03T09:54:31.058Z,99355.56
2023-07-03T09:56:57.792Z,99349.19
2023-07-03T09:59:25.424Z,99360.63
2023-07-03T10:07:06.391Z,99379.19
2023-07-03T10:12:21.731Z,99357.84
2023-07-03T10:14:55.313Z,99368.63
2023-07-03T10:17:45.051Z,99377.28
2023-07-03T10:20:17.849Z,99389.84
2023-07-03T10:22:45.370Z,99383.84
2023-07-03T10:25:19.340Z,99365.66
2023-07-03T10:27:48.834Z,99361.66
2023-07-03T10:30:19.427Z,99352.94
2023-07-03T10:32:51.244Z,99343.38
2023-07-03T10:35:25.420Z,99367.75
2023-07-03T10:38:26.296Z,99363.16
2023-07-03T10:41:18.680Z,99355.13
2023-07-03T10:43:51.099Z,99349.03
2023-07-03T10:46:27.988Z,99347.16
2023-07-03T10:48:56.332Z,99363.03
2023-07-03T10:51:26.307Z,99352.94
2023-07-03T10:53:57.180Z,99384.19
2023-07-03T10:56:43.108Z,99358.84
2023-07-03T10:59:29.729Z,99377.81
2023-07-03T11:02:07.109Z,99366.56
2023-07-03T11:04:52.487Z,99337.09
2023-07-03T11:07:39.434Z,99347.06
2023-07-03T11:10:18.889Z,99363.91
2023-07-03T11:13:02.523Z,99377.09
2023-07-03T11:15:53.479Z,99359.69
2023-07-03T11:24:53.134Z,99348.38
2023-07-03T11:27:56.872Z,99357.94
2023-07-03T11:30:27.017Z,99338.53
2023-07-03T11:32:55.950Z,99343.03
2023-07-03T11:41:00.818Z,99342.94
2023-07-03T11:43:30.114Z,99345.84
2023-07-03T11:45:59.299Z,99355.53
2023-07-03T11:48:44.522Z,99351.53
2023-07-03T11:51:14.414Z,99353.03
2023-07-03T11:53:45.737Z,99334.38
2023-07-03T11:56:34.548Z,99344.56
2023-07-03T11:59:07.084Z,99352.09
2023-07-03T12:01:33.846Z,99375.59
2023-07-03T12:04:03.573Z,99361.56
2023-07-03T12:06:39.418Z,99366.97
2023-07-03T12:09:27.597Z,99366.94
2023-07-03T12:12:08.174Z,99364.03
2023-07-03T12:14:40.639Z,99362.97
2023-07-03T12:17:32.799Z,99373.53
2023-07-03T12:20:13.239Z,99405.47
2023-07-03T12:22:46.287Z,99377.16
2023-07-03T12:25:25.007Z,99362.22
2023-07-03T12:27:52.153Z,99375.16
2023-07-03T12:30:28.524Z,99366.34
2023-07-03T12:32:56.920Z,99349.75
2023-07-03T12:35:28.511Z,99357.06
2023-07-03T12:38:06.081Z,99366.81
2023-07-03T12:40:33.266Z,99365.50
2023-07-03T12:42:59.689Z,99363.38
2023-07-03T12:45:28.411Z,99358.25
2023-07-03T12:48:01.893Z,99366.31
2023-07-03T12:50:28.375Z,99361.84
2023-07-03T12:53:03.842Z,99360.22
2023-07-03T12:55:37.327Z,99359.91
2023-07-03T12:58:06.719Z,99353.78
2023-07-03T13:00:35.652Z,99354.31
2023-07-03T13:03:03.467Z,99358.91
2023-07-03T13:05:35.921Z,99365.84
2023-07-03T13:08:07.201Z,99372.66
2023-07-03T13:10:33.612Z,99358.47
2023-07-03T13:13:11.931Z,99356.13
2023-07-03T13:15:41.163Z,99343.72
2023-07-03T13:18:16.592Z,99346.94
2023-07-03T13:21:00.247Z,99353.56
2023-07-03T13:23:34.453Z,99339.03
2023-07-03T13:26:02.198Z,99345.91
2023-07-03T13:28:33.940Z,99344.84
2023-07-03T13:31:07.661Z,99351.84
2023-07-03T13:33:37.243Z,99339.19
2023-07-03T13:36:26.255Z,99369.81
2023-07-03T13:39:16.818Z,99345.44
2023-07-03T13:41:44.118Z,99365.59
2023-07-03T13:44:12.743Z,99363.78
2023-07-03T13:46:40.661Z,99349.31
2023-07-03T13:49:07.576Z,99365.22
2023-07-03T13:51:36.266Z,99353.81
2023-07-03T13:54:11.954Z,99356.47
2023-07-03T13:56:43.265Z,99352.31
2023-07-03T13:59:10.789Z,99350.50
2023-07-03T14:01:38.812Z,99357.88
2023-07-03T14:04:06.395Z,99354.19
2023-07-03T14:06:33.341Z,99352.69
2023-07-03T14:08:59.896Z,99348.44
2023-07-03T14:11:26.288Z,99354.38
2023-07-03T14:13:54.038Z,99382.31
2023-07-03T14:16:20.652Z,99382.09
2023-07-03T14:18:47.150Z,99371.84
2023-07-03T14:21:14.890Z,99352.25
2023-07-03T14:23:45.494Z,99356.78
2023-07-03T14:26:13.450Z,99359.81
2023-07-03T14:28:40.575Z,99355.09
2023-07-03T14:31:08.722Z,99360.81
2023-07-03T14:33:35.274Z,99366.44
2023-07-03T14:36:01.778Z,99365.53
2023-07-03T14:38:28.232Z,99375.69
2023-07-03T14:40:54.651Z,99377.06
2023-07-03T14:43:21.077Z,99362.13
2023-07-03T14:45:47.624Z,99378.09
2023-07-03T14:48:14.197Z,99366.03
2023-07-03T14:50:40.630Z,99365.34
2023-07-03T14:53:07.184Z,99387.78
2023-07-03T14:55:33.653Z,99381.06
2023-07-03T14:58:00.169Z,99396.34
2023-07-03T15:00:26.569Z,99366.13
2023-07-03T15:02:53.200Z,99377.44
2023-07-03T15:05:23.535Z,99386.94
2023-07-03T15:07:52.158Z,99357.03
2023-07-03T15:10:20.030Z,99352.88
2023-07-03T15:12:47.731Z,99372.31
2023-07-03T15:15:14.336Z,99352.88
2023-07-03T15:17:40.985Z,99361.50
2023-07-03T15:20:08.571Z,99365.88
2023-07-03T15:22:35.668Z,99389.16
2023-07-03T15:25:02.335Z,99403.16
2023-07-03T15:27:28.845Z,99369.59
2023-07-03T15:29:55.276Z,99377.06
2023-07-03T15:32:21.686Z,99365.06
2023-07-03T15:34:52.463Z,99364.75
2023-07-03T15:37:19.002Z,99371.31
2023-07-03T15:39:45.478Z,99354.88
2023-07-03T15:42:11.963Z,99380.19
2023-07-03T15:44:38.359Z,99370.50
2023-07-03T15:47:08.846Z,99368.75
2023-07-03T15:49:38.945Z,99377.66
2023-07-03T15:52:06.117Z,99368.75
2023-07-03T15:54:35.890Z,99376.75
2023-07-03T15:57:04.181Z,99377.19
2023-07-03T15:59:31.035Z,99392.69
2023-07-03T16:01:58.156Z,99384.50
2023-07-03T16:04:24.616Z,99394.06
2023-07-03T16:06:51.041Z,99391.59
2023-07-03T16:09:17.746Z,99412.66
2023-07-03T16:11:44.213Z,99420.75
2023-07-03T16:14:10.644Z,99403.69
2023-07-03T16:16:37.428Z,99403.41
2023-07-03T16:19:04.451Z,99417.59
2023-07-03T16:21:32.388Z,99402.50
2023-07-03T16:23:59.052Z,99391.50
2023-07-03T16:26:27.253Z,99411.25
2023-07-03T16:28:54.679Z,99409.00
2023-07-03T16:31:24.005Z,99428.16
2023-07-03T16:33:52.465Z,99404.50
2023-07-03T16:36:21.384Z,99420.22
2023-07-03T16:38:49.148Z,99413.13
2023-07-03T16:41:16.188Z,99423.06
2023-07-03T16:43:45.056Z,99418.75
2023-07-03T16:46:13.316Z,99417.13
2023-07-03T16:48:40.079Z,99409.09
2023-07-03T16:51:08.646Z,99414.94
2023-07-03T16:53:38.696Z,99417.97
2023-07-03T16:56:13.645Z,99412.72
2023-07-03T16:58:42.225Z,99412.28
2023-07-03T17:01:15.899Z,99403.13
2023-07-03T17:03:42.824Z,99399.19
2023-07-03T17:06:16.827Z,99417.94
2023-07-03T17:08:43.247Z,99420.31
2023-07-03T17:11:12.274Z,99412.84
2023-07-03T17:13:39.095Z,99410.03
2023-07-03T17:16:05.695Z,99406.97
2023-07-03T17:18:32.504Z,99400.34
2023-07-03T17:20:59.094Z,99423.13
2023-07-03T17:23:25.757Z,99421.06
2023-07-03T17:25:54.188Z,99404.25
2023-07-03T17:28:20.868Z,99402.50
2023-07-03T17:30:47.268Z,99408.25
2023-07-03T17:33:13.808Z,99401.44
2023-07-03T17:35:40.627Z,99405.13
2023-07-03T17:38:09.458Z,99401.97
2023-07-03T17:40:38.147Z,99416.88
2023-07-03T17:43:04.726Z,99405.69
2023-07-03T17:45:31.124Z,99410.09
2023-07-03T17:47:57.516Z,99407.06
2023-07-03T17:50:23.977Z,99400.84
2023-07-03T17:52:50.708Z,99396.50
2023-07-03T17:55:17.368Z,99410.59
2023-07-03T17:57:43.805Z,99399.63
2023-07-03T18:00:10.820Z,99403.47
2023-07-03T18:02:37.346Z,99403.38
2023-07-03T18:05:04.026Z,99393.81
2023-07-03T18:07:30.483Z,99398.72
2023-07-03T18:09:56.902Z,99399.41
2023-07-03T18:12:23.320Z,99396.53
2023-07-03T18:14:49.738Z,99400.38
2023-07-03T18:17:16.139Z,99404.78
2023-07-03T18:19:42.575Z,99405.00
2023-07-03T18:22:08.963Z,99404.75
2023-07-03T18:24:35.402Z,99399.34
2023-07-03T18:27:02.445Z,99405.47
2023-07-03T18:29:28.835Z,99405.44
2023-07-03T18:31:55.285Z,99407.00
2023-07-03T18:34:21.742Z,99405.59
2023-07-03T18:36:48.267Z,99405.94
2023-07-03T18:39:14.817Z,99409.44
2023-07-03T18:41:43.405Z,99406.97
2023-07-03T18:44:10.387Z,99413.69
2023-07-03T18:46:36.871Z,99412.69
2023-07-03T18:49:03.363Z,99416.28
2023-07-03T18:51:29.857Z,99409.97
2023-07-03T18:53:56.328Z,99410.69
2023-07-03T18:56:22.808Z,99410.50
2023-07-03T18:58:52.842Z,99416.09
2023-07-03T19:01:19.290Z,99419.41
2023-07-03T19:03:45.802Z,99423.03
2023-07-03T19:06:14.982Z,99428.78
2023-07-03T19:08:41.748Z,99427.63
2023-07-03T19:11:08.674Z,99430.72
2023-07-03T19:13:35.314Z,99430.25
2023-07-03T19:16:01.989Z,99432.34
2023-07-03T19:18:31.028Z,99437.03
2023-07-03T19:20:57.462Z,99435.13
2023-07-03T19:23:23.959Z,99441.59
2023-07-03T19:25:55.180Z,99443.59
2023-07-03T19:28:22.987Z,99442.22
2023-07-03T19:30:57.092Z,99440.97
2023-07-03T19:33:24.117Z,99442.84
2023-07-03T19:35:51.247Z,99438.53
2023-07-03T19:38:18.257Z,99440.50
2023-07-03T19:40:44.858Z,99442.34
2023-07-03T19:43:11.845Z,99444.19
2023-07-03T19:45:39.401Z,99450.56
2023-07-03T19:48:07.318Z,99450.22
2023-07-03T19:50:36.275Z,99452.75
2023-07-03T19:53:02.722Z,99460.25
2023-07-03T19:55:29.456Z,99457.91
2023-07-03T19:57:56.018Z,99459.56
2023-07-03T20:00:22.598Z,99459.09
2023-07-03T20:02:49.159Z,99463.53
2023-07-03T20:05:16.413Z,99458.72
2023-07-03T20:07:42.840Z,99467.28
2023-07-03T20:10:09.835Z,99467.22
2023-07-03T20:12:36.622Z,99461.16
2023-07-03T20:15:03.715Z,99462.16
2023-07-03T20:17:31.836Z,99465.31
2023-07-03T20:19:58.809Z,99464.88
2023-07-03T20:22:25.398Z,99474.25
2023-07-03T20:24:51.825Z,99469.44
2023-07-03T20:27:18.591Z,99464.28
2023-07-03T20:29:50.377Z,99462.84
2023-07-03T20:32:17.694Z,99461.38
2023-07-03T20:34:45.895Z,99457.94
2023-07-03T20:37:12.283Z,99455.84
2023-07-03T20:39:38.693Z,99454.13
2023-07-03T20:42:06.636Z,99456.00
2023-07-03T20:44:34.750Z,99453.88
2023-07-03T20:47:04.046Z,99456.31
2023-07-03T20:49:31.305Z,99475.47
2023-07-03T20:51:59.901Z,99460.69
2023-07-03T20:54:34.580Z,99467.06
2023-07-03T20:57:05.444Z,99479.59
2023-07-03T20:59:34.652Z,99471.84
2023-07-03T21:02:01.804Z,99462.34
2023-07-03T21:04:28.856Z,99460.31
2023-07-03T21:06:56.274Z,99459.59
2023-07-03T21:09:22.718Z,99460.44
2023-07-03T21:11:50.487Z,99454.75
2023-07-03T21:14:18.226Z,99464.22
2023-07-03T21:16:44.943Z,99466.22
2023-07-03T21:19:13.222Z,99461.78
2023-07-03T21:21:40.008Z,99471.22
2023-07-03T21:24:10.208Z,99468.13
2023-07-03T21:26:37.193Z,99472.13
2023-07-03T21:29:05.301Z,99462.09
2023-07-03T21:31:36.675Z,99463.47
2023-07-03T21:34:04.109Z,99463.78
2023-07-03T21:36:33.250Z,99461.28
2023-07-03T21:39:01.136Z,99465.06
2023-07-03T21:41:31.973Z,99472.94
2023-07-03T21:44:02.153Z,99470.69
2023-07-03T21:46:30.810Z,99475.06
2023-07-03T21:48:58.178Z,99463.31
2023-07-03T21:51:29.554Z,99465.81
2023-07-03T21:53:56.604Z,99466.66
2023-07-03T21:56:28.550Z,99465.56
2023-07-03T21:59:02.981Z,99457.28
2023-07-03T22:01:35.062Z,99463.91
2023-07-03T22:04:03.414Z,99469.06
2023-07-03T22:06:29.864Z,99465.25
2023-07-03T22:08:57.183Z,99465.91
2023-07-03T22:11:24.503Z,99476.06
2023-07-03T22:13:51.585Z,99472.69
2023-07-03T22:16:18.738Z,99470.78
2023-07-03T22:18:45.925Z,99478.16
2023-07-03T22:21:13.161Z,99481.75
2023-07-03T22:23:39.623Z,99470.91
2023-07-03T22:26:06.037Z,99474.50
2023-07-03T22:28:32.478Z,99480.56
2023-07-03T22:30:59.716Z,99482.84
2023-07-03T22:33:26.150Z,99473.88
2023-07-03T22:35:54.211Z,99477.09
2023-07-03T22:38:21.462Z,99473.03
2023-07-03T22:40:51.879Z,99477.66
2023-07-03T22:43:19.942Z,99478.06
2023-07-03T22:45:46.450Z,99472.81
2023-07-03T22:48:14.326Z,99477.63
2023-07-03T22:50:41.248Z,99486.88
2023-07-03T22:53:09.144Z,99478.72
2023-07-03T22:55:40.851Z,99484.97
2023-07-03T22:58:09.710Z,99485.34
2023-07-03T23:00:39.470Z,99474.09
2023-07-03T23:03:06.396Z,99482.44
2023-07-03T23:05:32.977Z,99484.13
2023-07-03T23:07:59.412Z,99485.03
2023-07-03T23:10:25.817Z,99488.09
2023-07-03T23:12:52.241Z,99489.44
2023-07-03T23:15:18.677Z,99484.94
2023-07-03T23:17:45.149Z,99493.94
2023-07-03T23:20:15.714Z,99486.06
2023-07-03T23:22:42.778Z,99493.06
2023-07-03T23:25:09.944Z,99485.41
2023-07-03T23:27:36.547Z,99484.72
2023-07-03T23:30:05.429Z,99482.00
2023-07-03T23:32:34.501Z,99477.91
2023-07-03T23:35:01.322Z,99487.84
2023-07-03T23:37:27.867Z,99487.38
2023-07-03T23:39:54.329Z,99477.53
2023-07-03T23:42:20.790Z,99475.81
2023-07-03T23:44:47.238Z,99470.91
2023-07-03T23:47:14.121Z,99471.47
2023-07-03T23:49:40.659Z,99483.72
2023-07-03T23:52:07.585Z,99474.72
2023-07-03T23:54:34.077Z,99485.47
2023-07-03T23:57:00.597Z,99482.91
2023-07-03T23:59:28.020Z,99478.97
